sensor_id;sensor_type;location;lat;lon;timestamp;P1;durP1;ratioP1;P2;durP2;ratioP2
75156;SDS011;63736;50.076;8.198;2023-07-20T00:00:02;740.33;;;179.33;;
75156;SDS011;63736;50.076;8.198;2023-07-20T00:02:29;779.42;;;190.65;;
75156;SDS011;63736;50.076;8.198;2023-07-20T00:04:54;828.00;;;203.40;;
75156;SDS011;63736;50.076;8.198;2023-07-20T00:07:19;823.20;;;203.50;;
75156;SDS011;63736;50.076;8.198;2023-07-20T00:09:44;730.70;;;177.57;;
75156;SDS011;63736;50.076;8.198;2023-07-20T00:12:10;804.83;;;199.07;;
75156;SDS011;63736;50.076;8.198;2023-07-20T00:14:35;810.23;;;200.50;;
75156;SDS011;63736;50.076;8.198;2023-07-20T00:17:02;859.80;;;212.87;;
75156;SDS011;63736;50.076;8.198;2023-07-20T00:19:27;842.28;;;209.00;;
75156;SDS011;63736;50.076;8.198;2023-07-20T00:21:53;850.40;;;211.32;;
75156;SDS011;63736;50.076;8.198;2023-07-20T00:24:19;735.47;;;180.65;;
75156;SDS011;63736;50.076;8.198;2023-07-20T00:26:45;674.57;;;163.50;;
75156;SDS011;63736;50.076;8.198;2023-07-20T00:29:10;652.23;;;158.40;;
75156;SDS011;63736;50.076;8.198;2023-07-20T00:31:36;632.42;;;152.55;;
75156;SDS011;63736;50.076;8.198;2023-07-20T00:34:02;627.43;;;151.53;;
75156;SDS011;63736;50.076;8.198;2023-07-20T00:36:28;645.83;;;154.73;;
75156;SDS011;63736;50.076;8.198;2023-07-20T00:38:54;643.88;;;155.70;;
75156;SDS011;63736;50.076;8.198;2023-07-20T00:41:19;640.23;;;154.93;;
75156;SDS011;63736;50.076;8.198;2023-07-20T00:43:45;636.80;;;153.87;;
75156;SDS011;63736;50.076;8.198;2023-07-20T00:46:10;635.30;;;153.32;;
75156;SDS011;63736;50.076;8.198;2023-07-20T00:48:36;638.17;;;154.40;;
75156;SDS011;63736;50.076;8.198;2023-07-20T00:51:02;639.17;;;154.35;;
75156;SDS011;63736;50.076;8.198;2023-07-20T00:53:28;637.97;;;154.90;;
75156;SDS011;63736;50.076;8.198;2023-07-20T00:55:53;634.95;;;153.20;;
75156;SDS011;63736;50.076;8.198;2023-07-20T00:58:18;640.63;;;154.70;;
75156;SDS011;63736;50.076;8.198;2023-07-20T01:00:44;648.33;;;156.18;;
75156;SDS011;63736;50.076;8.198;2023-07-20T01:03:10;662.33;;;159.10;;
75156;SDS011;63736;50.076;8.198;2023-07-20T01:05:38;662.50;;;160.93;;
75156;SDS011;63736;50.076;8.198;2023-07-20T01:08:11;645.95;;;157.30;;
75156;SDS011;63736;50.076;8.198;2023-07-20T01:10:43;626.10;;;151.90;;
75156;SDS011;63736;50.076;8.198;2023-07-20T01:13:14;615.03;;;149.82;;
75156;SDS011;63736;50.076;8.198;2023-07-20T01:15:41;612.27;;;148.93;;
75156;SDS011;63736;50.076;8.198;2023-07-20T01:18:07;612.93;;;149.40;;
75156;SDS011;63736;50.076;8.198;2023-07-20T01:20:33;611.63;;;149.57;;
75156;SDS011;63736;50.076;8.198;2023-07-20T01:23:17;604.33;;;147.82;;
75156;SDS011;63736;50.076;8.198;2023-07-20T01:31:24;594.00;;;145.88;;
75156;SDS011;63736;50.076;8.198;2023-07-20T01:33:53;588.97;;;144.75;;
75156;SDS011;63736;50.076;8.198;2023-07-20T01:36:21;587.42;;;144.07;;
75156;SDS011;63736;50.076;8.198;2023-07-20T01:38:49;588.57;;;144.60;;
75156;SDS011;63736;50.076;8.198;2023-07-20T01:41:15;589.42;;;144.82;;
75156;SDS011;63736;50.076;8.198;2023-07-20T01:43:42;590.42;;;145.27;;
75156;SDS011;63736;50.076;8.198;2023-07-20T01:46:07;589.33;;;144.70;;
75156;SDS011;63736;50.076;8.198;2023-07-20T01:48:32;589.13;;;145.07;;
75156;SDS011;63736;50.076;8.198;2023-07-20T01:50:58;588.97;;;144.88;;
75156;SDS011;63736;50.076;8.198;2023-07-20T01:53:23;589.07;;;144.57;;
75156;SDS011;63736;50.076;8.198;2023-07-20T01:55:49;587.93;;;144.23;;
75156;SDS011;63736;50.076;8.198;2023-07-20T01:58:14;590.50;;;145.53;;
75156;SDS011;63736;50.076;8.198;2023-07-20T02:00:39;589.70;;;144.63;;
75156;SDS011;63736;50.076;8.198;2023-07-20T02:03:05;590.07;;;144.43;;
75156;SDS011;63736;50.076;8.198;2023-07-20T02:05:30;589.30;;;144.77;;
75156;SDS011;63736;50.076;8.198;2023-07-20T02:07:55;591.10;;;145.03;;
75156;SDS011;63736;50.076;8.198;2023-07-20T02:10:20;591.60;;;145.60;;
75156;SDS011;63736;50.076;8.198;2023-07-20T02:12:46;592.07;;;145.43;;
75156;SDS011;63736;50.076;8.198;2023-07-20T02:15:12;595.60;;;146.82;;
75156;SDS011;63736;50.076;8.198;2023-07-20T02:17:38;593.90;;;145.65;;
75156;SDS011;63736;50.076;8.198;2023-07-20T02:20:06;597.00;;;146.17;;
75156;SDS011;63736;50.076;8.198;2023-07-20T02:22:34;596.60;;;146.55;;
75156;SDS011;63736;50.076;8.198;2023-07-20T02:24:59;598.23;;;147.53;;
75156;SDS011;63736;50.076;8.198;2023-07-20T02:27:25;595.42;;;145.88;;
75156;SDS011;63736;50.076;8.198;2023-07-20T02:29:50;597.67;;;146.67;;
75156;SDS011;63736;50.076;8.198;2023-07-20T02:32:15;596.93;;;146.50;;
75156;SDS011;63736;50.076;8.198;2023-07-20T02:34:40;596.90;;;145.40;;
75156;SDS011;63736;50.076;8.198;2023-07-20T02:37:06;595.13;;;145.47;;
75156;SDS011;63736;50.076;8.198;2023-07-20T02:39:31;598.77;;;146.83;;
75156;SDS011;63736;50.076;8.198;2023-07-20T02:41:56;602.10;;;147.73;;
75156;SDS011;63736;50.076;8.198;2023-07-20T02:44:22;598.60;;;146.00;;
75156;SDS011;63736;50.076;8.198;2023-07-20T02:46:47;599.33;;;146.77;;
75156;SDS011;63736;50.076;8.198;2023-07-20T02:49:14;597.33;;;145.97;;
75156;SDS011;63736;50.076;8.198;2023-07-20T02:51:40;596.22;;;146.00;;
75156;SDS011;63736;50.076;8.198;2023-07-20T02:54:05;596.43;;;146.40;;
75156;SDS011;63736;50.076;8.198;2023-07-20T02:56:31;596.60;;;146.65;;
75156;SDS011;63736;50.076;8.198;2023-07-20T02:58:57;594.30;;;145.50;;
75156;SDS011;63736;50.076;8.198;2023-07-20T03:01:22;592.87;;;145.63;;
75156;SDS011;63736;50.076;8.198;2023-07-20T03:03:47;593.63;;;145.93;;
75156;SDS011;63736;50.076;8.198;2023-07-20T03:06:16;593.87;;;146.13;;
75156;SDS011;63736;50.076;8.198;2023-07-20T03:08:44;594.28;;;145.95;;
75156;SDS011;63736;50.076;8.198;2023-07-20T03:11:12;593.73;;;145.87;;
75156;SDS011;63736;50.076;8.198;2023-07-20T03:13:39;592.45;;;145.00;;
75156;SDS011;63736;50.076;8.198;2023-07-20T03:16:04;592.57;;;145.80;;
75156;SDS011;63736;50.076;8.198;2023-07-20T03:18:29;594.60;;;146.13;;
75156;SDS011;63736;50.076;8.198;2023-07-20T03:20:55;594.65;;;145.77;;
75156;SDS011;63736;50.076;8.198;2023-07-20T03:23:20;591.50;;;145.17;;
75156;SDS011;63736;50.076;8.198;2023-07-20T03:25:45;592.03;;;145.03;;
75156;SDS011;63736;50.076;8.198;2023-07-20T03:28:11;592.27;;;145.07;;
75156;SDS011;63736;50.076;8.198;2023-07-20T03:30:36;593.70;;;145.23;;
75156;SDS011;63736;50.076;8.198;2023-07-20T03:33:01;593.53;;;145.97;;
75156;SDS011;63736;50.076;8.198;2023-07-20T03:35:28;595.40;;;146.52;;
75156;SDS011;63736;50.076;8.198;2023-07-20T03:37:53;594.60;;;146.00;;
75156;SDS011;63736;50.076;8.198;2023-07-20T03:40:18;594.57;;;146.37;;
75156;SDS011;63736;50.076;8.198;2023-07-20T03:42:44;596.83;;;147.17;;
75156;SDS011;63736;50.076;8.198;2023-07-20T03:45:09;594.33;;;145.93;;
75156;SDS011;63736;50.076;8.198;2023-07-20T03:47:34;594.72;;;145.75;;
75156;SDS011;63736;50.076;8.198;2023-07-20T03:50:00;592.73;;;145.37;;
75156;SDS011;63736;50.076;8.198;2023-07-20T03:52:25;595.80;;;146.10;;
75156;SDS011;63736;50.076;8.198;2023-07-20T03:54:50;591.90;;;145.90;;
75156;SDS011;63736;50.076;8.198;2023-07-20T03:57:16;589.17;;;144.38;;
75156;SDS011;63736;50.076;8.198;2023-07-20T03:59:44;587.93;;;143.70;;
75156;SDS011;63736;50.076;8.198;2023-07-20T04:02:10;587.60;;;143.85;;
75156;SDS011;63736;50.076;8.198;2023-07-20T04:04:35;586.53;;;143.70;;
75156;SDS011;63736;50.076;8.198;2023-07-20T04:07:01;587.97;;;144.90;;
75156;SDS011;63736;50.076;8.198;2023-07-20T04:09:26;585.92;;;144.00;;
75156;SDS011;63736;50.076;8.198;2023-07-20T04:11:52;586.27;;;143.80;;
75156;SDS011;63736;50.076;8.198;2023-07-20T04:14:17;583.57;;;143.13;;
75156;SDS011;63736;50.076;8.198;2023-07-20T04:16:42;585.57;;;143.80;;
75156;SDS011;63736;50.076;8.198;2023-07-20T04:19:07;586.13;;;144.63;;
75156;SDS011;63736;50.076;8.198;2023-07-20T04:21:39;586.40;;;143.73;;
75156;SDS011;63736;50.076;8.198;2023-07-20T04:24:05;584.92;;;143.43;;
75156;SDS011;63736;50.076;8.198;2023-07-20T04:26:31;585.03;;;143.53;;
75156;SDS011;63736;50.076;8.198;2023-07-20T04:28:56;586.90;;;144.10;;
75156;SDS011;63736;50.076;8.198;2023-07-20T04:31:21;584.83;;;143.40;;
75156;SDS011;63736;50.076;8.198;2023-07-20T04:33:47;584.63;;;143.87;;
75156;SDS011;63736;50.076;8.198;2023-07-20T04:36:12;587.07;;;144.43;;
75156;SDS011;63736;50.076;8.198;2023-07-20T04:38:39;589.75;;;145.57;;
75156;SDS011;63736;50.076;8.198;2023-07-20T04:41:04;596.17;;;145.77;;
75156;SDS011;63736;50.076;8.198;2023-07-20T04:43:30;606.80;;;149.10;;
75156;SDS011;63736;50.076;8.198;2023-07-20T04:45:55;612.57;;;149.97;;
75156;SDS011;63736;50.076;8.198;2023-07-20T04:48:20;717.33;;;176.25;;
75156;SDS011;63736;50.076;8.198;2023-07-20T04:50:46;729.83;;;179.00;;
75156;SDS011;63736;50.076;8.198;2023-07-20T04:53:11;703.60;;;171.57;;
75156;SDS011;63736;50.076;8.198;2023-07-20T04:55:38;685.47;;;166.85;;
75156;SDS011;63736;50.076;8.198;2023-07-20T04:58:04;672.05;;;162.63;;
75156;SDS011;63736;50.076;8.198;2023-07-20T05:00:31;665.38;;;160.15;;
75156;SDS011;63736;50.076;8.198;2023-07-20T05:02:59;662.83;;;159.80;;
75156;SDS011;63736;50.076;8.198;2023-07-20T05:05:25;926.28;;;233.15;;
75156;SDS011;63736;50.076;8.198;2023-07-20T05:07:50;836.07;;;206.20;;
75156;SDS011;63736;50.076;8.198;2023-07-20T05:10:15;839.67;;;208.20;;
75156;SDS011;63736;50.076;8.198;2023-07-20T05:12:41;851.27;;;210.37;;
75156;SDS011;63736;50.076;8.198;2023-07-20T05:15:06;874.27;;;214.77;;
75156;SDS011;63736;50.076;8.198;2023-07-20T05:17:32;801.00;;;196.17;;
75156;SDS011;63736;50.076;8.198;2023-07-20T05:19:57;795.60;;;193.07;;
75156;SDS011;63736;50.076;8.198;2023-07-20T05:22:22;760.83;;;182.43;;
75156;SDS011;63736;50.076;8.198;2023-07-20T05:24:49;731.03;;;175.50;;
75156;SDS011;63736;50.076;8.198;2023-07-20T05:27:15;711.10;;;171.65;;
75156;SDS011;63736;50.076;8.198;2023-07-20T05:29:44;708.93;;;170.70;;
75156;SDS011;63736;50.076;8.198;2023-07-20T05:32:10;681.05;;;163.82;;
75156;SDS011;63736;50.076;8.198;2023-07-20T05:34:35;671.87;;;162.30;;
75156;SDS011;63736;50.076;8.198;2023-07-20T05:37:00;656.83;;;158.33;;
75156;SDS011;63736;50.076;8.198;2023-07-20T05:39:25;665.20;;;161.03;;
75156;SDS011;63736;50.076;8.198;2023-07-20T05:41:51;673.90;;;164.03;;
75156;SDS011;63736;50.076;8.198;2023-07-20T05:44:16;669.60;;;163.40;;
75156;SDS011;63736;50.076;8.198;2023-07-20T05:46:41;675.63;;;164.47;;
75156;SDS011;63736;50.076;8.198;2023-07-20T05:49:06;653.63;;;159.47;;
75156;SDS011;63736;50.076;8.198;2023-07-20T05:51:32;648.83;;;157.37;;
75156;SDS011;63736;50.076;8.198;2023-07-20T05:53:57;611.43;;;151.13;;
75156;SDS011;63736;50.076;8.198;2023-07-20T05:56:22;584.53;;;144.97;;
75156;SDS011;63736;50.076;8.198;2023-07-20T05:58:48;582.17;;;144.93;;
75156;SDS011;63736;50.076;8.198;2023-07-20T06:01:13;586.23;;;146.00;;
75156;SDS011;63736;50.076;8.198;2023-07-20T06:03:38;584.50;;;145.80;;
75156;SDS011;63736;50.076;8.198;2023-07-20T06:06:03;632.00;;;154.53;;
75156;SDS011;63736;50.076;8.198;2023-07-20T06:08:30;968.92;;;235.00;;
75156;SDS011;63736;50.076;8.198;2023-07-20T06:10:56;969.25;;;232.32;;
75156;SDS011;63736;50.076;8.198;2023-07-20T06:13:22;985.58;;;238.20;;
75156;SDS011;63736;50.076;8.198;2023-07-20T06:15:48;954.87;;;233.13;;
75156;SDS011;63736;50.076;8.198;2023-07-20T06:18:14;1009.50;;;245.05;;
75156;SDS011;63736;50.076;8.198;2023-07-20T06:20:39;648.13;;;157.50;;
75156;SDS011;63736;50.076;8.198;2023-07-20T06:23:05;766.57;;;187.83;;
75156;SDS011;63736;50.076;8.198;2023-07-20T06:25:30;685.70;;;166.23;;
75156;SDS011;63736;50.076;8.198;2023-07-20T06:27:56;747.30;;;182.60;;
75156;SDS011;63736;50.076;8.198;2023-07-20T06:30:21;700.80;;;170.65;;
75156;SDS011;63736;50.076;8.198;2023-07-20T06:32:47;827.77;;;204.17;;
75156;SDS011;63736;50.076;8.198;2023-07-20T06:35:13;825.70;;;202.93;;
75156;SDS011;63736;50.076;8.198;2023-07-20T06:37:38;798.67;;;195.63;;
75156;SDS011;63736;50.076;8.198;2023-07-20T06:40:04;751.17;;;184.05;;
75156;SDS011;63736;50.076;8.198;2023-07-20T06:42:30;762.60;;;186.33;;
75156;SDS011;63736;50.076;8.198;2023-07-20T06:44:56;763.58;;;185.65;;
75156;SDS011;63736;50.076;8.198;2023-07-20T06:47:22;713.42;;;174.93;;
75156;SDS011;63736;50.076;8.198;2023-07-20T06:49:47;646.87;;;156.90;;
75156;SDS011;63736;50.076;8.198;2023-07-20T06:52:12;640.73;;;157.63;;
75156;SDS011;63736;50.076;8.198;2023-07-20T06:54:38;624.40;;;152.73;;
75156;SDS011;63736;50.076;8.198;2023-07-20T06:57:04;611.55;;;150.65;;
75156;SDS011;63736;50.076;8.198;2023-07-20T06:59:30;606.65;;;149.02;;
75156;SDS011;63736;50.076;8.198;2023-07-20T07:01:55;598.90;;;147.47;;
75156;SDS011;63736;50.076;8.198;2023-07-20T07:04:20;566.57;;;140.70;;
75156;SDS011;63736;50.076;8.198;2023-07-20T07:06:46;595.27;;;148.33;;
75156;SDS011;63736;50.076;8.198;2023-07-20T07:09:11;614.63;;;151.00;;
75156;SDS011;63736;50.076;8.198;2023-07-20T07:11:37;613.17;;;150.30;;
75156;SDS011;63736;50.076;8.198;2023-07-20T07:14:02;626.23;;;152.83;;
75156;SDS011;63736;50.076;8.198;2023-07-20T07:16:28;628.27;;;153.47;;
75156;SDS011;63736;50.076;8.198;2023-07-20T07:18:53;746.97;;;182.70;;
75156;SDS011;63736;50.076;8.198;2023-07-20T07:21:18;752.00;;;181.88;;
75156;SDS011;63736;50.076;8.198;2023-07-20T07:23:44;710.90;;;171.23;;
75156;SDS011;63736;50.076;8.198;2023-07-20T07:26:10;658.38;;;160.05;;
75156;SDS011;63736;50.076;8.198;2023-07-20T07:28:36;662.37;;;160.17;;
75156;SDS011;63736;50.076;8.198;2023-07-20T07:31:04;664.57;;;160.13;;
75156;SDS011;63736;50.076;8.198;2023-07-20T07:33:29;758.03;;;183.82;;
75156;SDS011;63736;50.076;8.198;2023-07-20T07:35:55;845.40;;;208.80;;
75156;SDS011;63736;50.076;8.198;2023-07-20T07:38:20;718.33;;;174.63;;
75156;SDS011;63736;50.076;8.198;2023-07-20T07:40:45;739.95;;;180.60;;
75156;SDS011;63736;50.076;8.198;2023-07-20T07:43:11;742.47;;;182.27;;
75156;SDS011;63736;50.076;8.198;2023-07-20T07:45:38;721.63;;;176.60;;
75156;SDS011;63736;50.076;8.198;2023-07-20T07:48:04;709.53;;;175.20;;
75156;SDS011;63736;50.076;8.198;2023-07-20T07:50:29;709.28;;;173.90;;
75156;SDS011;63736;50.076;8.198;2023-07-20T07:52:55;698.57;;;172.90;;
75156;SDS011;63736;50.076;8.198;2023-07-20T07:55:20;667.30;;;164.20;;
75156;SDS011;63736;50.076;8.198;2023-07-20T07:57:46;657.20;;;161.10;;
75156;SDS011;63736;50.076;8.198;2023-07-20T08:00:12;648.70;;;160.05;;
75156;SDS011;63736;50.076;8.198;2023-07-20T08:02:40;641.08;;;158.15;;
75156;SDS011;63736;50.076;8.198;2023-07-20T08:05:07;627.30;;;154.60;;
75156;SDS011;63736;50.076;8.198;2023-07-20T08:07:32;617.70;;;153.18;;
75156;SDS011;63736;50.076;8.198;2023-07-20T08:09:57;612.77;;;152.00;;
75156;SDS011;63736;50.076;8.198;2023-07-20T08:12:24;609.65;;;151.25;;
75156;SDS011;63736;50.076;8.198;2023-07-20T08:14:49;609.00;;;151.60;;
75156;SDS011;63736;50.076;8.198;2023-07-20T08:17:14;613.13;;;153.30;;
75156;SDS011;63736;50.076;8.198;2023-07-20T08:19:40;607.17;;;151.67;;
75156;SDS011;63736;50.076;8.198;2023-07-20T08:22:06;604.42;;;150.63;;
75156;SDS011;63736;50.076;8.198;2023-07-20T08:24:32;609.95;;;152.15;;
75156;SDS011;63736;50.076;8.198;2023-07-20T08:26:58;606.43;;;150.97;;
75156;SDS011;63736;50.076;8.198;2023-07-20T08:29:24;592.90;;;147.55;;
75156;SDS011;63736;50.076;8.198;2023-07-20T08:31:49;590.27;;;147.23;;
75156;SDS011;63736;50.076;8.198;2023-07-20T08:34:14;569.07;;;142.90;;
75156;SDS011;63736;50.076;8.198;2023-07-20T08:36:40;560.13;;;142.03;;
75156;SDS011;63736;50.076;8.198;2023-07-20T08:39:06;557.97;;;142.03;;
75156;SDS011;63736;50.076;8.198;2023-07-20T08:41:33;553.00;;;139.63;;
75156;SDS011;63736;50.076;8.198;2023-07-20T08:43:59;556.05;;;140.98;;
75156;SDS011;63736;50.076;8.198;2023-07-20T08:46:25;556.45;;;140.82;;
75156;SDS011;63736;50.076;8.198;2023-07-20T08:48:52;563.88;;;141.38;;
75156;SDS011;63736;50.076;8.198;2023-07-20T08:51:17;566.20;;;141.73;;
75156;SDS011;63736;50.076;8.198;2023-07-20T08:53:46;568.58;;;142.73;;
75156;SDS011;63736;50.076;8.198;2023-07-20T08:56:13;570.22;;;143.95;;
75156;SDS011;63736;50.076;8.198;2023-07-20T08:58:41;565.00;;;142.07;;
75156;SDS011;63736;50.076;8.198;2023-07-20T09:01:08;586.47;;;146.17;;
75156;SDS011;63736;50.076;8.198;2023-07-20T09:03:35;605.80;;;150.43;;
75156;SDS011;63736;50.076;8.198;2023-07-20T09:06:02;595.42;;;148.80;;
75156;SDS011;63736;50.076;8.198;2023-07-20T09:08:28;592.97;;;147.70;;
75156;SDS011;63736;50.076;8.198;2023-07-20T09:10:53;586.17;;;148.63;;
75156;SDS011;63736;50.076;8.198;2023-07-20T09:13:19;579.25;;;146.07;;
75156;SDS011;63736;50.076;8.198;2023-07-20T09:15:47;583.63;;;146.20;;
75156;SDS011;63736;50.076;8.198;2023-07-20T09:18:26;579.80;;;145.47;;
75156;SDS011;63736;50.076;8.198;2023-07-20T09:20:53;577.65;;;144.93;;
75156;SDS011;63736;50.076;8.198;2023-07-20T09:23:29;595.55;;;150.23;;
75156;SDS011;63736;50.076;8.198;2023-07-20T09:25:56;620.70;;;154.27;;
75156;SDS011;63736;50.076;8.198;2023-07-20T09:28:22;604.15;;;151.32;;
75156;SDS011;63736;50.076;8.198;2023-07-20T09:30:47;595.73;;;149.80;;
75156;SDS011;63736;50.076;8.198;2023-07-20T09:33:20;589.97;;;147.80;;
75156;SDS011;63736;50.076;8.198;2023-07-20T09:35:46;702.60;;;172.45;;
75156;SDS011;63736;50.076;8.198;2023-07-20T09:38:12;725.87;;;179.53;;
75156;SDS011;63736;50.076;8.198;2023-07-20T09:40:39;712.08;;;175.63;;
75156;SDS011;63736;50.076;8.198;2023-07-20T09:43:07;698.73;;;172.70;;
75156;SDS011;63736;50.076;8.198;2023-07-20T09:45:34;647.58;;;161.50;;
75156;SDS011;63736;50.076;8.198;2023-07-20T09:48:04;631.20;;;157.23;;
75156;SDS011;63736;50.076;8.198;2023-07-20T09:50:33;641.55;;;159.60;;
75156;SDS011;63736;50.076;8.198;2023-07-20T09:52:59;606.47;;;153.07;;
75156;SDS011;63736;50.076;8.198;2023-07-20T09:55:26;618.47;;;156.32;;
75156;SDS011;63736;50.076;8.198;2023-07-20T09:57:52;587.63;;;149.60;;
75156;SDS011;63736;50.076;8.198;2023-07-20T10:00:18;572.15;;;146.52;;
75156;SDS011;63736;50.076;8.198;2023-07-20T10:02:44;540.43;;;141.27;;
75156;SDS011;63736;50.076;8.198;2023-07-20T10:05:11;531.22;;;137.88;;
75156;SDS011;63736;50.076;8.198;2023-07-20T10:07:40;498.45;;;132.40;;
75156;SDS011;63736;50.076;8.198;2023-07-20T10:10:09;473.63;;;126.18;;
75156;SDS011;63736;50.076;8.198;2023-07-20T10:12:36;485.35;;;127.20;;
75156;SDS011;63736;50.076;8.198;2023-07-20T10:15:11;503.50;;;130.53;;
75156;SDS011;63736;50.076;8.198;2023-07-20T10:20:40;544.05;;;139.48;;
75156;SDS011;63736;50.076;8.198;2023-07-20T10:23:08;562.33;;;142.07;;
75156;SDS011;63736;50.076;8.198;2023-07-20T10:25:35;546.55;;;138.98;;
75156;SDS011;63736;50.076;8.198;2023-07-20T10:28:05;540.53;;;137.73;;
75156;SDS011;63736;50.076;8.198;2023-07-20T10:30:36;544.20;;;138.70;;
75156;SDS011;63736;50.076;8.198;2023-07-20T10:33:03;544.03;;;139.23;;
75156;SDS011;63736;50.076;8.198;2023-07-20T10:35:29;547.53;;;139.18;;
75156;SDS011;63736;50.076;8.198;2023-07-20T10:38:01;559.90;;;142.17;;
75156;SDS011;63736;50.076;8.198;2023-07-20T10:40:33;546.33;;;138.83;;
75156;SDS011;63736;50.076;8.198;2023-07-20T10:43:00;540.47;;;138.38;;
75156;SDS011;63736;50.076;8.198;2023-07-20T10:48:28;528.10;;;136.15;;
75156;SDS011;63736;50.076;8.198;2023-07-20T10:51:09;524.95;;;135.05;;
75156;SDS011;63736;50.076;8.198;2023-07-20T10:53:40;526.13;;;134.83;;
75156;SDS011;63736;50.076;8.198;2023-07-20T10:56:06;522.40;;;134.17;;
75156;SDS011;63736;50.076;8.198;2023-07-20T10:58:34;523.22;;;135.20;;
75156;SDS011;63736;50.076;8.198;2023-07-20T11:01:03;521.70;;;135.15;;
75156;SDS011;63736;50.076;8.198;2023-07-20T11:03:33;522.73;;;134.27;;
75156;SDS011;63736;50.076;8.198;2023-07-20T11:06:08;523.25;;;135.18;;
75156;SDS011;63736;50.076;8.198;2023-07-20T11:09:03;526.58;;;136.93;;
75156;SDS011;63736;50.076;8.198;2023-07-20T11:11:31;523.28;;;135.23;;
75156;SDS011;63736;50.076;8.198;2023-07-20T11:13:59;522.00;;;134.93;;
75156;SDS011;63736;50.076;8.198;2023-07-20T11:16:33;519.83;;;134.70;;
75156;SDS011;63736;50.076;8.198;2023-07-20T11:18:59;512.40;;;132.90;;
75156;SDS011;63736;50.076;8.198;2023-07-20T11:21:25;507.40;;;132.43;;
75156;SDS011;63736;50.076;8.198;2023-07-20T11:23:52;508.75;;;131.55;;
75156;SDS011;63736;50.076;8.198;2023-07-20T11:26:18;504.60;;;130.27;;
75156;SDS011;63736;50.076;8.198;2023-07-20T11:28:48;560.75;;;141.35;;
75156;SDS011;63736;50.076;8.198;2023-07-20T11:31:17;642.60;;;157.80;;
75156;SDS011;63736;50.076;8.198;2023-07-20T11:33:43;623.20;;;153.75;;
75156;SDS011;63736;50.076;8.198;2023-07-20T11:36:08;623.33;;;153.07;;
75156;SDS011;63736;50.076;8.198;2023-07-20T11:38:34;616.70;;;152.53;;
75156;SDS011;63736;50.076;8.198;2023-07-20T11:41:00;608.50;;;150.23;;
75156;SDS011;63736;50.076;8.198;2023-07-20T11:43:28;601.65;;;148.73;;
75156;SDS011;63736;50.076;8.198;2023-07-20T11:45:54;584.93;;;145.03;;
75156;SDS011;63736;50.076;8.198;2023-07-20T11:48:20;577.15;;;144.43;;
75156;SDS011;63736;50.076;8.198;2023-07-20T11:50:45;575.00;;;143.27;;
75156;SDS011;63736;50.076;8.198;2023-07-20T11:53:10;578.33;;;144.83;;
75156;SDS011;63736;50.076;8.198;2023-07-20T11:55:36;560.33;;;140.68;;
75156;SDS011;63736;50.076;8.198;2023-07-20T11:58:06;561.43;;;140.70;;
75156;SDS011;63736;50.076;8.198;2023-07-20T12:00:33;566.08;;;142.32;;
75156;SDS011;63736;50.076;8.198;2023-07-20T12:02:59;589.15;;;147.85;;
75156;SDS011;63736;50.076;8.198;2023-07-20T12:05:25;610.45;;;151.45;;
75156;SDS011;63736;50.076;8.198;2023-07-20T12:07:51;597.93;;;148.73;;
75156;SDS011;63736;50.076;8.198;2023-07-20T12:10:22;598.13;;;148.85;;
75156;SDS011;63736;50.076;8.198;2023-07-20T12:12:53;587.67;;;147.52;;
75156;SDS011;63736;50.076;8.198;2023-07-20T12:15:25;582.83;;;145.90;;
75156;SDS011;63736;50.076;8.198;2023-07-20T12:17:53;580.17;;;145.88;;
75156;SDS011;63736;50.076;8.198;2023-07-20T12:20:27;573.95;;;144.57;;
75156;SDS011;63736;50.076;8.198;2023-07-20T12:23:01;570.30;;;143.83;;
75156;SDS011;63736;50.076;8.198;2023-07-20T12:25:37;564.88;;;142.90;;
75156;SDS011;63736;50.076;8.198;2023-07-20T12:28:10;563.13;;;144.60;;
75156;SDS011;63736;50.076;8.198;2023-07-20T12:30:37;563.80;;;143.70;;
75156;SDS011;63736;50.076;8.198;2023-07-20T12:33:03;562.58;;;142.85;;
75156;SDS011;63736;50.076;8.198;2023-07-20T12:35:29;562.53;;;142.47;;
75156;SDS011;63736;50.076;8.198;2023-07-20T12:37:56;542.65;;;138.50;;
75156;SDS011;63736;50.076;8.198;2023-07-20T12:40:21;550.75;;;141.68;;
75156;SDS011;63736;50.076;8.198;2023-07-20T12:42:47;555.30;;;140.87;;
75156;SDS011;63736;50.076;8.198;2023-07-20T12:45:13;566.93;;;143.63;;
75156;SDS011;63736;50.076;8.198;2023-07-20T12:47:38;565.80;;;143.70;;
75156;SDS011;63736;50.076;8.198;2023-07-20T12:50:04;553.70;;;141.77;;
75156;SDS011;63736;50.076;8.198;2023-07-20T12:52:31;553.88;;;141.63;;
75156;SDS011;63736;50.076;8.198;2023-07-20T12:54:56;565.27;;;144.87;;
75156;SDS011;63736;50.076;8.198;2023-07-20T12:57:22;566.13;;;142.77;;
75156;SDS011;63736;50.076;8.198;2023-07-20T12:59:47;595.87;;;149.87;;
75156;SDS011;63736;50.076;8.198;2023-07-20T13:02:13;610.43;;;152.67;;
75156;SDS011;63736;50.076;8.198;2023-07-20T13:04:38;611.10;;;151.87;;
75156;SDS011;63736;50.076;8.198;2023-07-20T13:07:03;628.75;;;155.90;;
75156;SDS011;63736;50.076;8.198;2023-07-20T13:09:29;621.60;;;154.00;;
75156;SDS011;63736;50.076;8.198;2023-07-20T13:11:54;605.57;;;150.90;;
75156;SDS011;63736;50.076;8.198;2023-07-20T13:14:19;617.13;;;153.27;;
75156;SDS011;63736;50.076;8.198;2023-07-20T13:16:45;615.30;;;153.67;;
75156;SDS011;63736;50.076;8.198;2023-07-20T13:19:10;627.90;;;154.20;;
75156;SDS011;63736;50.076;8.198;2023-07-20T13:21:35;629.93;;;155.00;;
75156;SDS011;63736;50.076;8.198;2023-07-20T13:24:00;644.00;;;158.37;;
75156;SDS011;63736;50.076;8.198;2023-07-20T13:26:26;635.77;;;156.80;;
75156;SDS011;63736;50.076;8.198;2023-07-20T13:28:52;594.63;;;147.97;;
75156;SDS011;63736;50.076;8.198;2023-07-20T13:31:17;630.87;;;154.83;;
75156;SDS011;63736;50.076;8.198;2023-07-20T13:33:43;640.93;;;157.20;;
75156;SDS011;63736;50.076;8.198;2023-07-20T13:36:08;639.00;;;158.07;;
75156;SDS011;63736;50.076;8.198;2023-07-20T13:38:34;643.53;;;157.83;;
75156;SDS011;63736;50.076;8.198;2023-07-20T13:40:59;643.03;;;156.80;;
75156;SDS011;63736;50.076;8.198;2023-07-20T13:43:24;653.67;;;159.27;;
75156;SDS011;63736;50.076;8.198;2023-07-20T13:45:50;701.83;;;172.37;;
75156;SDS011;63736;50.076;8.198;2023-07-20T13:48:15;707.03;;;173.15;;
75156;SDS011;63736;50.076;8.198;2023-07-20T13:50:42;708.20;;;172.83;;
75156;SDS011;63736;50.076;8.198;2023-07-20T13:53:07;642.80;;;156.40;;
75156;SDS011;63736;50.076;8.198;2023-07-20T13:55:32;650.63;;;158.53;;
75156;SDS011;63736;50.076;8.198;2023-07-20T13:58:01;660.47;;;160.37;;
75156;SDS011;63736;50.076;8.198;2023-07-20T14:00:26;646.67;;;157.43;;
75156;SDS011;63736;50.076;8.198;2023-07-20T14:02:55;750.00;;;183.27;;